sensor_id;sensor_type;location;lat;lon;timestamp;pressure;altitude;pressure_sealevel;temperature;humidity
59417;BME280;45222;52.458;20.914;2023-06-22T00:02:13;100741.77;;;19.74;78.96
59417;BME280;45222;52.458;20.914;2023-06-22T00:05:59;100744.71;;;19.71;78.72
59417;BME280;45222;52.458;20.914;2023-06-22T00:09:45;100740.20;;;19.71;78.98
59417;BME280;45222;52.458;20.914;2023-06-22T00:13:31;100733.62;;;19.72;78.94
59417;BME280;45222;52.458;20.914;2023-06-22T00:17:18;100728.60;;;19.74;78.82
59417;BME280;45222;52.458;20.914;2023-06-22T00:21:04;100726.73;;;19.75;78.66
59417;BME280;45222;52.458;20.914;2023-06-22T00:24:51;100731.62;;;19.72;78.51
59417;BME280;45222;52.458;20.914;2023-06-22T00:28:37;100728.85;;;19.68;78.53
59417;BME280;45222;52.458;20.914;2023-06-22T00:32:23;100726.98;;;19.60;78.47
59417;BME280;45222;52.458;20.914;2023-06-22T00:36:09;100724.28;;;19.51;78.56
59417;BME280;45222;52.458;20.914;2023-06-22T00:39:58;100720.19;;;19.42;78.57
59417;BME280;45222;52.458;20.914;2023-06-22T00:43:44;100721.14;;;19.34;78.37
59417;BME280;45222;52.458;20.914;2023-06-22T00:47:31;100720.83;;;19.29;78.45
59417;BME280;45222;52.458;20.914;2023-06-22T00:51:17;100721.72;;;19.27;78.68
59417;BME280;45222;52.458;20.914;2023-06-22T00:55:06;100718.09;;;19.27;78.66
59417;BME280;45222;52.458;20.914;2023-06-22T00:58:52;100717.81;;;19.26;78.59
59417;BME280;45222;52.458;20.914;2023-06-22T01:02:39;100714.98;;;19.23;78.73
59417;BME280;45222;52.458;20.914;2023-06-22T01:06:27;100711.33;;;19.22;78.73
59417;BME280;45222;52.458;20.914;2023-06-22T01:10:18;100710.58;;;19.20;78.78
59417;BME280;45222;52.458;20.914;2023-06-22T01:14:09;100704.09;;;19.15;79.11
59417;BME280;45222;52.458;20.914;2023-06-22T01:17:58;100701.66;;;19.12;79.02
59417;BME280;45222;52.458;20.914;2023-06-22T01:21:45;100700.45;;;19.09;79.06
59417;BME280;45222;52.458;20.914;2023-06-22T01:25:33;100693.78;;;19.04;79.00
59417;BME280;45222;52.458;20.914;2023-06-22T01:29:22;100690.80;;;18.98;79.16
59417;BME280;45222;52.458;20.914;2023-06-22T01:33:10;100685.59;;;18.88;79.25
59417;BME280;45222;52.458;20.914;2023-06-22T01:36:58;100685.30;;;18.81;79.29
59417;BME280;45222;52.458;20.914;2023-06-22T01:40:45;100687.06;;;18.74;79.42
59417;BME280;45222;52.458;20.914;2023-06-22T01:44:32;100688.68;;;18.67;79.71
59417;BME280;45222;52.458;20.914;2023-06-22T01:48:18;100692.80;;;18.60;79.73
59417;BME280;45222;52.458;20.914;2023-06-22T01:52:05;100709.09;;;18.57;79.71
59417;BME280;45222;52.458;20.914;2023-06-22T01:55:52;100717.06;;;18.54;79.99
59417;BME280;45222;52.458;20.914;2023-06-22T01:59:39;100721.86;;;18.55;80.07
59417;BME280;45222;52.458;20.914;2023-06-22T02:03:29;100724.04;;;18.59;79.97
59417;BME280;45222;52.458;20.914;2023-06-22T02:07:17;100722.30;;;18.63;80.14
59417;BME280;45222;52.458;20.914;2023-06-22T02:11:06;100721.13;;;18.67;80.11
59417;BME280;45222;52.458;20.914;2023-06-22T02:14:53;100729.11;;;18.68;80.14
59417;BME280;45222;52.458;20.914;2023-06-22T02:18:40;100724.22;;;18.67;80.01
59417;BME280;45222;52.458;20.914;2023-06-22T02:22:31;100730.91;;;18.61;79.83
59417;BME280;45222;52.458;20.914;2023-06-22T02:26:17;100739.25;;;18.56;80.11
59417;BME280;45222;52.458;20.914;2023-06-22T02:30:05;100749.45;;;18.45;80.45
59417;BME280;45222;52.458;20.914;2023-06-22T02:33:51;100754.70;;;18.32;80.59
59417;BME280;45222;52.458;20.914;2023-06-22T02:37:37;100761.39;;;18.27;80.62
59417;BME280;45222;52.458;20.914;2023-06-22T02:41:26;100768.13;;;18.26;80.83
59417;BME280;45222;52.458;20.914;2023-06-22T02:45:12;100771.31;;;18.27;81.16
59417;BME280;45222;52.458;20.914;2023-06-22T02:48:58;100781.39;;;18.32;81.45
59417;BME280;45222;52.458;20.914;2023-06-22T02:52:44;100788.38;;;18.37;81.78
59417;BME280;45222;52.458;20.914;2023-06-22T02:56:31;100789.95;;;18.42;82.32
59417;BME280;45222;52.458;20.914;2023-06-22T03:00:17;100793.11;;;18.51;82.60
59417;BME280;45222;52.458;20.914;2023-06-22T03:04:04;100787.91;;;18.60;82.68
59417;BME280;45222;52.458;20.914;2023-06-22T03:07:50;100789.40;;;18.69;83.08
59417;BME280;45222;52.458;20.914;2023-06-22T03:11:37;100790.79;;;18.79;83.14
59417;BME280;45222;52.458;20.914;2023-06-22T03:15:23;100794.48;;;18.87;83.19
59417;BME280;45222;52.458;20.914;2023-06-22T03:19:10;100789.52;;;18.98;83.27
59417;BME280;45222;52.458;20.914;2023-06-22T03:22:56;100791.51;;;19.08;83.57
59417;BME280;45222;52.458;20.914;2023-06-22T03:26:43;100789.27;;;19.18;83.67
59417;BME280;45222;52.458;20.914;2023-06-22T03:30:31;100794.80;;;19.26;83.94
59417;BME280;45222;52.458;20.914;2023-06-22T03:34:17;100799.42;;;19.32;84.13
59417;BME280;45222;52.458;20.914;2023-06-22T03:38:04;100802.29;;;19.41;84.04
59417;BME280;45222;52.458;20.914;2023-06-22T03:41:50;100807.47;;;19.53;84.03
59417;BME280;45222;52.458;20.914;2023-06-22T03:45:36;100810.69;;;19.67;83.87
59417;BME280;45222;52.458;20.914;2023-06-22T03:49:22;100811.59;;;19.81;83.84
59417;BME280;45222;52.458;20.914;2023-06-22T03:53:08;100806.94;;;19.96;83.80
59417;BME280;45222;52.458;20.914;2023-06-22T03:56:55;100814.73;;;20.12;83.57
59417;BME280;45222;52.458;20.914;2023-06-22T04:00:42;100816.75;;;20.27;83.48
59417;BME280;45222;52.458;20.914;2023-06-22T04:04:28;100820.67;;;20.40;83.61
59417;BME280;45222;52.458;20.914;2023-06-22T04:08:14;100824.35;;;20.53;83.07
59417;BME280;45222;52.458;20.914;2023-06-22T04:12:00;100826.36;;;20.68;82.89
59417;BME280;45222;52.458;20.914;2023-06-22T04:15:52;100835.90;;;20.81;82.09
59417;BME280;45222;52.458;20.914;2023-06-22T04:19:38;100840.54;;;20.95;82.09
59417;BME280;45222;52.458;20.914;2023-06-22T04:23:24;100845.59;;;21.00;82.12
59417;BME280;45222;52.458;20.914;2023-06-22T04:27:11;100853.94;;;21.01;82.18
59417;BME280;45222;52.458;20.914;2023-06-22T04:30:57;100853.89;;;21.04;81.69
59417;BME280;45222;52.458;20.914;2023-06-22T04:34:47;100853.72;;;21.02;81.68
59417;BME280;45222;52.458;20.914;2023-06-22T04:38:33;100859.50;;;20.96;81.58
59417;BME280;45222;52.458;20.914;2023-06-22T04:42:19;100866.23;;;20.89;81.76
59417;BME280;45222;52.458;20.914;2023-06-22T04:46:06;100864.83;;;20.81;82.54
59417;BME280;45222;52.458;20.914;2023-06-22T04:49:52;100860.95;;;20.80;82.35
59417;BME280;45222;52.458;20.914;2023-06-22T04:53:38;100858.22;;;20.85;82.53
59417;BME280;45222;52.458;20.914;2023-06-22T04:57:25;100856.21;;;20.92;82.14
59417;BME280;45222;52.458;20.914;2023-06-22T05:01:17;100849.13;;;20.98;82.24
59417;BME280;45222;52.458;20.914;2023-06-22T05:05:04;100843.80;;;21.01;81.89
59417;BME280;45222;52.458;20.914;2023-06-22T05:08:52;100851.23;;;20.99;81.77
59417;BME280;45222;52.458;20.914;2023-06-22T05:12:42;100853.40;;;20.99;81.93
59417;BME280;45222;52.458;20.914;2023-06-22T05:16:28;100853.23;;;21.01;81.69
59417;BME280;45222;52.458;20.914;2023-06-22T05:20:14;100859.29;;;21.07;81.93
59417;BME280;45222;52.458;20.914;2023-06-22T05:24:03;100856.14;;;21.14;81.79
59417;BME280;45222;52.458;20.914;2023-06-22T05:27:49;100865.67;;;21.23;81.51
59417;BME280;45222;52.458;20.914;2023-06-22T05:31:36;100872.48;;;21.28;80.96
59417;BME280;45222;52.458;20.914;2023-06-22T05:35:22;100876.17;;;21.29;81.03
59417;BME280;45222;52.458;20.914;2023-06-22T05:39:12;100875.63;;;21.34;80.77
59417;BME280;45222;52.458;20.914;2023-06-22T05:42:59;100881.17;;;21.39;80.38
59417;BME280;45222;52.458;20.914;2023-06-22T05:46:46;100880.80;;;21.43;80.17
59417;BME280;45222;52.458;20.914;2023-06-22T05:50:33;100889.95;;;21.44;79.81
59417;BME280;45222;52.458;20.914;2023-06-22T05:54:19;100877.95;;;21.44;79.66
59417;BME280;45222;52.458;20.914;2023-06-22T05:58:05;100875.16;;;21.56;79.47
59417;BME280;45222;52.458;20.914;2023-06-22T06:01:52;100884.73;;;21.73;78.85
59417;BME280;45222;52.458;20.914;2023-06-22T06:05:38;100890.42;;;21.83;78.51
59417;BME280;45222;52.458;20.914;2023-06-22T06:09:24;100889.00;;;21.95;78.29
59417;BME280;45222;52.458;20.914;2023-06-22T06:13:10;100883.75;;;22.13;78.08
59417;BME280;45222;52.458;20.914;2023-06-22T06:16:59;100880.98;;;22.30;77.23
59417;BME280;45222;52.458;20.914;2023-06-22T06:20:45;100881.34;;;22.40;76.70
59417;BME280;45222;52.458;20.914;2023-06-22T06:24:32;100885.60;;;22.62;76.06
59417;BME280;45222;52.458;20.914;2023-06-22T06:28:18;100888.55;;;22.81;75.09
59417;BME280;45222;52.458;20.914;2023-06-22T06:32:04;100893.30;;;22.98;74.01
59417;BME280;45222;52.458;20.914;2023-06-22T06:35:53;100883.34;;;23.20;73.55
59417;BME280;45222;52.458;20.914;2023-06-22T06:39:40;100877.81;;;23.48;72.82
59417;BME280;45222;52.458;20.914;2023-06-22T06:43:26;100880.39;;;23.78;71.08
59417;BME280;45222;52.458;20.914;2023-06-22T06:47:13;100882.82;;;23.93;70.67
59417;BME280;45222;52.458;20.914;2023-06-22T06:50:59;100875.91;;;23.94;70.43
59417;BME280;45222;52.458;20.914;2023-06-22T06:54:45;100877.67;;;23.89;70.13
59417;BME280;45222;52.458;20.914;2023-06-22T06:58:31;100875.15;;;23.97;69.28
59417;BME280;45222;52.458;20.914;2023-06-22T07:02:19;100870.92;;;24.03;68.33
59417;BME280;45222;52.458;20.914;2023-06-22T07:06:06;100867.94;;;24.06;68.39
59417;BME280;45222;52.458;20.914;2023-06-22T07:09:52;100881.57;;;24.15;68.28
59417;BME280;45222;52.458;20.914;2023-06-22T07:13:38;100885.95;;;24.15;67.31
59417;BME280;45222;52.458;20.914;2023-06-22T07:17:24;100891.80;;;24.22;66.92
59417;BME280;45222;52.458;20.914;2023-06-22T07:21:10;100899.59;;;24.31;65.66
59417;BME280;45222;52.458;20.914;2023-06-22T07:24:57;100901.11;;;24.46;66.03
59417;BME280;45222;52.458;20.914;2023-06-22T07:28:46;100896.08;;;24.71;65.04
59417;BME280;45222;52.458;20.914;2023-06-22T07:32:32;100897.16;;;24.87;63.35
59417;BME280;45222;52.458;20.914;2023-06-22T07:36:20;100898.46;;;25.00;63.26
59417;BME280;45222;52.458;20.914;2023-06-22T07:40:08;100903.81;;;25.01;61.55
59417;BME280;45222;52.458;20.914;2023-06-22T07:43:56;100908.61;;;25.06;59.47
59417;BME280;45222;52.458;20.914;2023-06-22T07:47:42;100910.91;;;25.03;58.89
59417;BME280;45222;52.458;20.914;2023-06-22T07:51:29;100905.25;;;25.12;58.88
59417;BME280;45222;52.458;20.914;2023-06-22T07:55:16;100900.70;;;25.19;57.24
59417;BME280;45222;52.458;20.914;2023-06-22T07:59:02;100903.77;;;25.28;56.37
59417;BME280;45222;52.458;20.914;2023-06-22T08:02:49;100901.59;;;25.39;55.60
59417;BME280;45222;52.458;20.914;2023-06-22T08:06:35;100897.95;;;25.46;55.65
59417;BME280;45222;52.458;20.914;2023-06-22T08:10:21;100893.02;;;25.60;56.15
59417;BME280;45222;52.458;20.914;2023-06-22T08:14:09;100895.99;;;25.79;55.52
59417;BME280;45222;52.458;20.914;2023-06-22T08:17:55;100884.36;;;25.95;54.66
59417;BME280;45222;52.458;20.914;2023-06-22T08:21:42;100885.10;;;26.07;54.24
59417;BME280;45222;52.458;20.914;2023-06-22T08:25:28;100890.27;;;26.20;53.18
59417;BME280;45222;52.458;20.914;2023-06-22T08:29:14;100896.21;;;26.28;52.35
59417;BME280;45222;52.458;20.914;2023-06-22T08:33:01;100894.67;;;26.33;52.24
59417;BME280;45222;52.458;20.914;2023-06-22T08:36:47;100897.57;;;26.39;51.62
59417;BME280;45222;52.458;20.914;2023-06-22T08:40:36;100897.95;;;26.50;50.88
59417;BME280;45222;52.458;20.914;2023-06-22T08:44:22;100902.85;;;26.58;50.19
59417;BME280;45222;52.458;20.914;2023-06-22T08:48:09;100910.72;;;26.62;49.29
59417;BME280;45222;52.458;20.914;2023-06-22T08:51:55;100909.09;;;26.69;49.94
59417;BME280;45222;52.458;20.914;2023-06-22T08:55:42;100913.87;;;26.82;50.05
59417;BME280;45222;52.458;20.914;2023-06-22T08:59:28;100915.04;;;26.97;49.65
59417;BME280;45222;52.458;20.914;2023-06-22T09:03:14;100908.48;;;27.17;49.36
59417;BME280;45222;52.458;20.914;2023-06-22T09:07:01;100909.84;;;27.24;48.55
59417;BME280;45222;52.458;20.914;2023-06-22T09:10:47;100907.75;;;27.22;46.75
59417;BME280;45222;52.458;20.914;2023-06-22T09:14:33;100899.85;;;27.14;47.66
59417;BME280;45222;52.458;20.914;2023-06-22T09:18:19;100901.01;;;27.21;47.53
59417;BME280;45222;52.458;20.914;2023-06-22T09:22:06;100898.95;;;27.27;47.37
59417;BME280;45222;52.458;20.914;2023-06-22T09:25:52;100905.55;;;27.33;47.91
59417;BME280;45222;52.458;20.914;2023-06-22T09:29:38;100905.62;;;27.51;47.55
59417;BME280;45222;52.458;20.914;2023-06-22T09:33:25;100904.46;;;27.53;47.23
59417;BME280;45222;52.458;20.914;2023-06-22T09:37:11;100898.13;;;27.61;47.37
59417;BME280;45222;52.458;20.914;2023-06-22T09:40:57;100894.23;;;27.78;48.01
59417;BME280;45222;52.458;20.914;2023-06-22T09:44:43;100885.04;;;27.96;47.18
59417;BME280;45222;52.458;20.914;2023-06-22T09:48:30;100888.20;;;28.15;46.83
59417;BME280;45222;52.458;20.914;2023-06-22T09:52:17;100895.23;;;28.17;46.66
59417;BME280;45222;52.458;20.914;2023-06-22T09:56:04;100886.23;;;28.12;46.89
59417;BME280;45222;52.458;20.914;2023-06-22T09:59:51;100885.52;;;28.21;47.19
59417;BME280;45222;52.458;20.914;2023-06-22T10:03:37;100882.67;;;28.31;46.45
59417;BME280;45222;52.458;20.914;2023-06-22T10:07:23;100886.25;;;28.41;45.48
59417;BME280;45222;52.458;20.914;2023-06-22T10:11:10;100886.33;;;28.52;45.15
59417;BME280;45222;52.458;20.914;2023-06-22T10:14:56;100886.25;;;28.43;44.82
59417;BME280;45222;52.458;20.914;2023-06-22T10:18:42;100886.98;;;28.40;45.07
59417;BME280;45222;52.458;20.914;2023-06-22T10:22:30;100887.98;;;28.55;45.14
59417;BME280;45222;52.458;20.914;2023-06-22T10:26:18;100889.14;;;28.67;44.23
59417;BME280;45222;52.458;20.914;2023-06-22T10:30:05;100889.14;;;28.78;44.20
59417;BME280;45222;52.458;20.914;2023-06-22T10:33:51;100885.17;;;28.80;42.76
59417;BME280;45222;52.458;20.914;2023-06-22T10:37:38;100886.41;;;28.84;42.36
59417;BME280;45222;52.458;20.914;2023-06-22T10:41:24;100882.93;;;28.82;42.83
59417;BME280;45222;52.458;20.914;2023-06-22T10:45:11;100876.78;;;28.53;43.40
59417;BME280;45222;52.458;20.914;2023-06-22T10:48:58;100874.06;;;28.44;44.27
59417;BME280;45222;52.458;20.914;2023-06-22T10:52:46;100874.34;;;28.65;44.13
59417;BME280;45222;52.458;20.914;2023-06-22T10:56:32;100873.34;;;28.75;44.09
59417;BME280;45222;52.458;20.914;2023-06-22T11:00:19;100872.13;;;28.96;44.09
59417;BME280;45222;52.458;20.914;2023-06-22T11:04:06;100865.32;;;29.06;43.07
59417;BME280;45222;52.458;20.914;2023-06-22T11:07:54;100868.12;;;29.16;42.51
59417;BME280;45222;52.458;20.914;2023-06-22T11:11:40;100867.98;;;29.31;42.81
59417;BME280;45222;52.458;20.914;2023-06-22T11:15:27;100859.92;;;29.54;42.52
59417;BME280;45222;52.458;20.914;2023-06-22T11:19:13;100854.30;;;29.79;42.19
59417;BME280;45222;52.458;20.914;2023-06-22T11:23:00;100854.29;;;29.97;42.01
59417;BME280;45222;52.458;20.914;2023-06-22T11:26:46;100854.59;;;30.13;41.22
59417;BME280;45222;52.458;20.914;2023-06-22T11:30:32;100851.02;;;30.25;40.40
59417;BME280;45222;52.458;20.914;2023-06-22T11:34:19;100849.84;;;30.42;40.60
59417;BME280;45222;52.458;20.914;2023-06-22T11:38:05;100849.52;;;30.64;40.71
59417;BME280;45222;52.458;20.914;2023-06-22T11:41:54;100850.83;;;30.61;39.90
59417;BME280;45222;52.458;20.914;2023-06-22T11:45:42;100855.67;;;30.76;40.01
59417;BME280;45222;52.458;20.914;2023-06-22T11:49:29;100848.73;;;31.02;39.81
59417;BME280;45222;52.458;20.914;2023-06-22T11:53:15;100846.73;;;31.19;39.51
59417;BME280;45222;52.458;20.914;2023-06-22T11:57:02;100858.51;;;30.99;39.02
59417;BME280;45222;52.458;20.914;2023-06-22T12:00:49;100847.59;;;30.73;39.89
59417;BME280;45222;52.458;20.914;2023-06-22T12:04:39;100851.23;;;30.84;39.66
59417;BME280;45222;52.458;20.914;2023-06-22T12:08:25;100850.95;;;30.89;39.37
59417;BME280;45222;52.458;20.914;2023-06-22T12:12:11;100848.09;;;30.81;39.42
59417;BME280;45222;52.458;20.914;2023-06-22T12:15:57;100848.25;;;30.56;40.24
59417;BME280;45222;52.458;20.914;2023-06-22T12:19:44;100846.45;;;30.47;39.86
59417;BME280;45222;52.458;20.914;2023-06-22T12:23:30;100835.05;;;30.03;40.16
59417;BME280;45222;52.458;20.914;2023-06-22T12:27:17;100836.66;;;29.83;40.31
59417;BME280;45222;52.458;20.914;2023-06-22T12:31:04;100836.80;;;29.77;40.61
59417;BME280;45222;52.458;20.914;2023-06-22T12:34:50;100843.62;;;29.68;41.29
59417;BME280;45222;52.458;20.914;2023-06-22T12:38:36;100846.70;;;29.47;41.58
59417;BME280;45222;52.458;20.914;2023-06-22T12:42:22;100853.18;;;29.26;41.69
59417;BME280;45222;52.458;20.914;2023-06-22T12:46:08;100847.67;;;29.13;41.61
59417;BME280;45222;52.458;20.914;2023-06-22T12:49:55;100845.71;;;29.30;41.26
59417;BME280;45222;52.458;20.914;2023-06-22T12:53:41;100842.75;;;29.54;41.04
59417;BME280;45222;52.458;20.914;2023-06-22T12:57:28;100843.44;;;29.54;40.77
59417;BME280;45222;52.458;20.914;2023-06-22T13:01:14;100850.16;;;29.58;40.96
59417;BME280;45222;52.458;20.914;2023-06-22T13:05:03;100848.76;;;29.63;40.33
59417;BME280;45222;52.458;20.914;2023-06-22T13:08:49;100850.45;;;29.70;40.13
59417;BME280;45222;52.458;20.914;2023-06-22T13:12:36;100847.41;;;29.86;40.22
59417;BME280;45222;52.458;20.914;2023-06-22T13:16:22;100842.49;;;30.17;38.93
59417;BME280;45222;52.458;20.914;2023-06-22T13:20:09;100838.62;;;30.45;38.24
59417;BME280;45222;52.458;20.914;2023-06-22T13:23:55;100839.46;;;30.74;37.75
59417;BME280;45222;52.458;20.914;2023-06-22T13:27:42;100838.20;;;30.98;36.93
59417;BME280;45222;52.458;20.914;2023-06-22T13:31:28;100840.23;;;31.15;36.26
59417;BME280;45222;52.458;20.914;2023-06-22T13:35:15;100844.44;;;31.21;34.85
59417;BME280;45222;52.458;20.914;2023-06-22T13:39:03;100845.21;;;31.14;34.82
59417;BME280;45222;52.458;20.914;2023-06-22T13:42:49;100844.77;;;31.17;33.75
59417;BME280;45222;52.458;20.914;2023-06-22T13:46:36;100843.52;;;31.34;34.37
59417;BME280;45222;52.458;20.914;2023-06-22T13:54:40;100846.40;;;31.13;33.48
59417;BME280;45222;52.458;20.914;2023-06-22T13:58:26;100843.07;;;31.09;34.26
59417;BME280;45222;52.458;20.914;2023-06-22T14:02:12;100841.15;;;31.04;34.44
59417;BME280;45222;52.458;20.914;2023-06-22T14:05:58;100837.00;;;30.97;34.56
59417;BME280;45222;52.458;20.914;2023-06-22T14:09:45;100838.59;;;31.17;34.88
59417;BME280;45222;52.458;20.914;2023-06-22T14:13:31;100835.55;;;31.47;35.06
59417;BME280;45222;52.458;20.914;2023-06-22T14:17:17;100843.70;;;31.55;34.92
59417;BME280;45222;52.458;20.914;2023-06-22T14:21:08;100836.42;;;31.56;34.96
59417;BME280;45222;52.458;20.914;2023-06-22T14:24:54;100839.56;;;31.66;34.35
59417;BME280;45222;52.458;20.914;2023-06-22T14:28:42;100833.94;;;31.69;34.36
59417;BME280;45222;52.458;20.914;2023-06-22T14:32:31;100834.98;;;31.67;34.27
59417;BME280;45222;52.458;20.914;2023-06-22T14:36:18;100840.15;;;31.66;33.99
59417;BME280;45222;52.458;20.914;2023-06-22T14:40:05;100835.89;;;31.47;34.29
59417;BME280;45222;52.458;20.914;2023-06-22T14:43:52;100838.11;;;31.36;34.14
59417;BME280;45222;52.458;20.914;2023-06-22T14:47:38;100822.05;;;31.15;34.58
59417;BME280;45222;52.458;20.914;2023-06-22T14:51:24;100824.70;;;31.13;34.94
59417;BME280;45222;52.458;20.914;2023-06-22T14:55:12;100820.14;;;31.23;35.16
59417;BME280;45222;52.458;20.914;2023-06-22T14:58:59;100818.07;;;31.30;34.94
59417;BME280;45222;52.458;20.914;2023-06-22T15:02:45;100814.87;;;31.34;34.19
59417;BME280;45222;52.458;20.914;2023-06-22T15:06:31;100813.89;;;31.41;33.51
59417;BME280;45222;52.458;20.914;2023-06-22T15:10:17;100814.42;;;31.36;33.21
59417;BME280;45222;52.458;20.914;2023-06-22T15:14:04;100805.17;;;31.26;33.52
59417;BME280;45222;52.458;20.914;2023-06-22T15:17:50;100802.86;;;31.24;34.13
59417;BME280;45222;52.458;20.914;2023-06-22T15:21:36;100802.57;;;31.12;34.55
59417;BME280;45222;52.458;20.914;2023-06-22T15:25:23;100803.19;;;30.77;34.51
59417;BME280;45222;52.458;20.914;2023-06-22T15:29:10;100809.14;;;30.55;35.01
59417;BME280;45222;52.458;20.914;2023-06-22T15:32:56;100801.05;;;30.17;35.15
59417;BME280;45222;52.458;20.914;2023-06-22T15:36:42;100799.14;;;29.85;35.63
59417;BME280;45222;52.458;20.914;2023-06-22T15:40:29;100791.86;;;29.62;35.90
59417;BME280;45222;52.458;20.914;2023-06-22T15:44:15;100791.23;;;29.53;36.47
59417;BME280;45222;52.458;20.914;2023-06-22T15:48:02;100788.52;;;29.55;36.43
59417;BME280;45222;52.458;20.914;2023-06-22T15:51:48;100792.13;;;29.45;36.04
59417;BME280;45222;52.458;20.914;2023-06-22T15:55:34;100793.53;;;29.44;36.99
59417;BME280;45222;52.458;20.914;2023-06-22T15:59:21;100795.92;;;29.45;36.58
59417;BME280;45222;52.458;20.914;2023-06-22T16:03:08;100791.14;;;29.38;36.55
59417;BME280;45222;52.458;20.914;2023-06-22T16:06:55;100793.20;;;29.38;36.71
59417;BME280;45222;52.458;20.914;2023-06-22T16:10:41;100797.61;;;29.42;36.97
59417;BME280;45222;52.458;20.914;2023-06-22T16:14:29;100794.68;;;29.47;36.75
59417;BME280;45222;52.458;20.914;2023-06-22T16:18:15;100789.23;;;29.52;36.71
59417;BME280;45222;52.458;20.914;2023-06-22T16:22:01;100788.40;;;29.56;36.50
59417;BME280;45222;52.458;20.914;2023-06-22T16:25:48;100790.13;;;29.64;36.21
59417;BME280;45222;52.458;20.914;2023-06-22T16:29:34;100790.00;;;29.63;36.80
59417;BME280;45222;52.458;20.914;2023-06-22T16:33:21;100795.42;;;29.42;38.06
59417;BME280;45222;52.458;20.914;2023-06-22T16:37:07;100792.38;;;29.19;38.48
59417;BME280;45222;52.458;20.914;2023-06-22T16:40:54;100792.73;;;28.86;39.05
59417;BME280;45222;52.458;20.914;2023-06-22T16:44:40;100791.97;;;28.68;39.57
59417;BME280;45222;52.458;20.914;2023-06-22T16:48:26;100794.07;;;28.58;40.10
59417;BME280;45222;52.458;20.914;2023-06-22T16:52:12;100785.66;;;28.52;40.03
59417;BME280;45222;52.458;20.914;2023-06-22T16:55:58;100777.77;;;28.46;39.59
59417;BME280;45222;52.458;20.914;2023-06-22T16:59:45;100777.73;;;28.37;39.55
59417;BME280;45222;52.458;20.914;2023-06-22T17:03:33;100776.56;;;28.28;39.77
59417;BME280;45222;52.458;20.914;2023-06-22T17:07:20;100773.63;;;28.19;39.71
59417;BME280;45222;52.458;20.914;2023-06-22T17:11:06;100775.24;;;28.11;39.95
59417;BME280;45222;52.458;20.914;2023-06-22T17:14:53;100773.45;;;28.03;40.68
59417;BME280;45222;52.458;20.914;2023-06-22T17:18:40;100770.39;;;27.91;41.12
59417;BME280;45222;52.458;20.914;2023-06-22T17:22:26;100768.33;;;27.81;41.35
59417;BME280;45222;52.458;20.914;2023-06-22T17:26:20;100766.61;;;27.67;41.61
59417;BME280;45222;52.458;20.914;2023-06-22T17:30:08;100766.61;;;27.56;41.71
59417;BME280;45222;52.458;20.914;2023-06-22T17:33:54;100767.48;;;27.43;42.00
59417;BME280;45222;52.458;20.914;2023-06-22T17:37:47;100767.98;;;27.31;42.01
59417;BME280;45222;52.458;20.914;2023-06-22T17:41:35;100766.88;;;27.24;42.01
59417;BME280;45222;52.458;20.914;2023-06-22T17:45:23;100765.48;;;27.14;41.45
59417;BME280;45222;52.458;20.914;2023-06-22T17:49:10;100768.89;;;26.98;41.43
59417;BME280;45222;52.458;20.914;2023-06-22T17:52:57;100766.32;;;26.87;41.47
59417;BME280;45222;52.458;20.914;2023-06-22T17:56:44;100766.98;;;26.72;41.38
59417;BME280;45222;52.458;20.914;2023-06-22T18:00:36;100762.97;;;26.72;41.76
59417;BME280;45222;52.458;20.914;2023-06-22T18:04:22;100767.25;;;26.62;42.18
59417;BME280;45222;52.458;20.914;2023-06-22T18:08:11;100765.84;;;26.44;42.81
59417;BME280;45222;52.458;20.914;2023-06-22T18:12:00;100764.59;;;26.26;43.32
59417;BME280;45222;52.458;20.914;2023-06-22T18:15:48;100766.05;;;26.06;43.58
59417;BME280;45222;52.458;20.914;2023-06-22T18:19:36;100769.34;;;25.87;44.04
59417;BME280;45222;52.458;20.914;2023-06-22T18:23:26;100769.38;;;25.69;44.41
59417;BME280;45222;52.458;20.914;2023-06-22T18:27:13;100764.48;;;25.55;44.86
59417;BME280;45222;52.458;20.914;2023-06-22T18:31:00;100761.98;;;25.44;45.27
59417;BME280;45222;52.458;20.914;2023-06-22T18:34:48;100760.89;;;25.32;45.84
59417;BME280;45222;52.458;20.914;2023-06-22T18:38:36;100759.70;;;25.20;46.18
59417;BME280;45222;52.458;20.914;2023-06-22T18:42:26;100763.52;;;25.06;46.52
59417;BME280;45222;52.458;20.914;2023-06-22T18:46:33;100762.68;;;24.86;46.80
59417;BME280;45222;52.458;20.914;2023-06-22T18:50:34;100763.84;;;24.67;47.33
59417;BME280;45222;52.458;20.914;2023-06-22T18:54:21;100763.84;;;24.50;47.81
59417;BME280;45222;52.458;20.914;2023-06-22T18:58:15;100764.42;;;24.31;48.18
59417;BME280;45222;52.458;20.914;2023-06-22T19:02:03;100769.54;;;24.10;49.08
59417;BME280;45222;52.458;20.914;2023-06-22T19:05:53;100775.36;;;23.88;49.92
59417;BME280;45222;52.458;20.914;2023-06-22T19:09:39;100769.96;;;23.61;50.16
59417;BME280;45222;52.458;20.914;2023-06-22T19:13:29;100773.46;;;23.37;50.38
59417;BME280;45222;52.458;20.914;2023-06-22T19:17:15;100772.77;;;23.13;50.67
59417;BME280;45222;52.458;20.914;2023-06-22T19:21:06;100771.33;;;22.94;50.96
59417;BME280;45222;52.458;20.914;2023-06-22T19:24:53;100777.62;;;22.77;51.85
59417;BME280;45222;52.458;20.914;2023-06-22T19:28:45;100779.99;;;22.59;52.24
59417;BME280;45222;52.458;20.914;2023-06-22T19:32:32;100783.75;;;22.39;52.58
59417;BME280;45222;52.458;20.914;2023-06-22T19:36:20;100785.55;;;22.20;53.17